sensor_id;sensor_type;location;lat;lon;timestamp;temperature;humidity
68215;DHT22;55036;52.138;5.236;2023-08-06T00:01:28;16.30;95.50
68215;DHT22;55036;52.138;5.236;2023-08-06T00:03:54;16.20;95.90
68215;DHT22;55036;52.138;5.236;2023-08-06T00:06:21;16.30;95.90
68215;DHT22;55036;52.138;5.236;2023-08-06T00:08:48;16.40;95.40
68215;DHT22;55036;52.138;5.236;2023-08-06T00:11:15;16.30;95.30
68215;DHT22;55036;52.138;5.236;2023-08-06T00:13:42;16.30;95.50
68215;DHT22;55036;52.138;5.236;2023-08-06T00:16:12;16.20;95.50
68215;DHT22;55036;52.138;5.236;2023-08-06T00:18:40;16.20;95.80
68215;DHT22;55036;52.138;5.236;2023-08-06T00:21:07;16.20;95.70
68215;DHT22;55036;52.138;5.236;2023-08-06T00:23:33;16.10;96.10
68215;DHT22;55036;52.138;5.236;2023-08-06T00:26:00;16.20;95.60
68215;DHT22;55036;52.138;5.236;2023-08-06T00:28:27;16.10;95.90
68215;DHT22;55036;52.138;5.236;2023-08-06T00:30:54;16.10;95.90
68215;DHT22;55036;52.138;5.236;2023-08-06T00:33:22;16.10;96.10
68215;DHT22;55036;52.138;5.236;2023-08-06T00:35:49;16.20;96.00
68215;DHT22;55036;52.138;5.236;2023-08-06T00:38:16;16.30;95.70
68215;DHT22;55036;52.138;5.236;2023-08-06T00:40:43;16.30;95.80
68215;DHT22;55036;52.138;5.236;2023-08-06T01:22:06;16.50;94.70
68215;DHT22;55036;52.138;5.236;2023-08-06T01:24:33;16.40;94.80
68215;DHT22;55036;52.138;5.236;2023-08-06T01:27:09;16.40;95.00
68215;DHT22;55036;52.138;5.236;2023-08-06T01:29:43;16.40;94.80
68215;DHT22;55036;52.138;5.236;2023-08-06T01:32:12;16.50;94.80
68215;DHT22;55036;52.138;5.236;2023-08-06T01:34:41;16.40;94.80
68215;DHT22;55036;52.138;5.236;2023-08-06T01:37:10;16.30;95.20
68215;DHT22;55036;52.138;5.236;2023-08-06T01:39:40;16.30;95.50
68215;DHT22;55036;52.138;5.236;2023-08-06T01:42:09;16.30;95.30
68215;DHT22;55036;52.138;5.236;2023-08-06T01:44:35;16.30;95.50
68215;DHT22;55036;52.138;5.236;2023-08-06T01:47:02;16.30;95.20
68215;DHT22;55036;52.138;5.236;2023-08-06T01:49:29;16.30;95.50
68215;DHT22;55036;52.138;5.236;2023-08-06T01:51:56;16.40;95.20
68215;DHT22;55036;52.138;5.236;2023-08-06T01:54:23;16.40;95.20
68215;DHT22;55036;52.138;5.236;2023-08-06T01:56:50;16.40;95.30
68215;DHT22;55036;52.138;5.236;2023-08-06T01:59:16;16.40;95.00
68215;DHT22;55036;52.138;5.236;2023-08-06T02:01:43;16.40;95.00
68215;DHT22;55036;52.138;5.236;2023-08-06T02:04:10;16.40;94.70
68215;DHT22;55036;52.138;5.236;2023-08-06T02:06:37;16.40;94.70
68215;DHT22;55036;52.138;5.236;2023-08-06T02:09:03;16.40;95.10
68215;DHT22;55036;52.138;5.236;2023-08-06T02:11:30;16.40;95.10
68215;DHT22;55036;52.138;5.236;2023-08-06T02:13:57;16.30;95.00
68215;DHT22;55036;52.138;5.236;2023-08-06T02:16:23;16.30;95.10
68215;DHT22;55036;52.138;5.236;2023-08-06T02:18:50;16.20;95.60
68215;DHT22;55036;52.138;5.236;2023-08-06T02:21:17;16.30;95.60
68215;DHT22;55036;52.138;5.236;2023-08-06T02:23:44;16.30;95.40
68215;DHT22;55036;52.138;5.236;2023-08-06T02:26:10;16.40;95.30
68215;DHT22;55036;52.138;5.236;2023-08-06T02:28:37;16.40;95.10
68215;DHT22;55036;52.138;5.236;2023-08-06T02:31:04;16.50;95.00
68215;DHT22;55036;52.138;5.236;2023-08-06T02:33:33;16.50;95.00
68215;DHT22;55036;52.138;5.236;2023-08-06T02:36:01;16.60;95.00
68215;DHT22;55036;52.138;5.236;2023-08-06T02:38:28;16.60;94.90
68215;DHT22;55036;52.138;5.236;2023-08-06T02:40:54;16.60;94.80
68215;DHT22;55036;52.138;5.236;2023-08-06T02:43:21;16.70;94.70
68215;DHT22;55036;52.138;5.236;2023-08-06T02:45:48;16.60;94.70
68215;DHT22;55036;52.138;5.236;2023-08-06T02:48:15;16.60;94.50
68215;DHT22;55036;52.138;5.236;2023-08-06T02:50:42;16.60;94.60
68215;DHT22;55036;52.138;5.236;2023-08-06T02:53:08;16.50;94.70
68215;DHT22;55036;52.138;5.236;2023-08-06T02:55:36;16.40;95.40
68215;DHT22;55036;52.138;5.236;2023-08-06T02:58:02;16.40;95.40
68215;DHT22;55036;52.138;5.236;2023-08-06T03:00:29;16.30;95.30
68215;DHT22;55036;52.138;5.236;2023-08-06T03:02:56;16.40;95.20
68215;DHT22;55036;52.138;5.236;2023-08-06T03:05:23;16.30;95.30
68215;DHT22;55036;52.138;5.236;2023-08-06T03:07:50;16.30;95.30
68215;DHT22;55036;52.138;5.236;2023-08-06T03:10:16;16.40;95.30
68215;DHT22;55036;52.138;5.236;2023-08-06T03:12:43;16.40;95.00
68215;DHT22;55036;52.138;5.236;2023-08-06T03:15:10;16.30;95.30
68215;DHT22;55036;52.138;5.236;2023-08-06T03:17:37;16.30;95.40
68215;DHT22;55036;52.138;5.236;2023-08-06T03:20:04;16.40;95.40
68215;DHT22;55036;52.138;5.236;2023-08-06T03:22:31;16.40;95.20
68215;DHT22;55036;52.138;5.236;2023-08-06T03:24:58;16.40;95.20
68215;DHT22;55036;52.138;5.236;2023-08-06T03:27:24;16.50;95.30
68215;DHT22;55036;52.138;5.236;2023-08-06T03:29:51;16.50;95.20
68215;DHT22;55036;52.138;5.236;2023-08-06T03:32:18;16.50;95.20
68215;DHT22;55036;52.138;5.236;2023-08-06T03:34:45;16.60;95.00
68215;DHT22;55036;52.138;5.236;2023-08-06T03:37:12;16.60;94.90
68215;DHT22;55036;52.138;5.236;2023-08-06T03:39:39;16.60;94.80
68215;DHT22;55036;52.138;5.236;2023-08-06T03:42:06;16.60;94.90
68215;DHT22;55036;52.138;5.236;2023-08-06T03:44:33;16.60;94.80
68215;DHT22;55036;52.138;5.236;2023-08-06T03:47:00;16.70;94.80
68215;DHT22;55036;52.138;5.236;2023-08-06T03:49:26;16.70;94.80
68215;DHT22;55036;52.138;5.236;2023-08-06T03:51:53;16.80;94.70
68215;DHT22;55036;52.138;5.236;2023-08-06T03:54:20;16.80;94.80
68215;DHT22;55036;52.138;5.236;2023-08-06T03:56:47;16.80;94.60
68215;DHT22;55036;52.138;5.236;2023-08-06T03:59:13;16.80;94.50
68215;DHT22;55036;52.138;5.236;2023-08-06T04:01:40;16.80;94.60
68215;DHT22;55036;52.138;5.236;2023-08-06T04:04:07;16.80;94.60
68215;DHT22;55036;52.138;5.236;2023-08-06T04:06:34;16.80;94.50
68215;DHT22;55036;52.138;5.236;2023-08-06T04:09:01;16.80;94.40
68215;DHT22;55036;52.138;5.236;2023-08-06T04:11:27;16.80;94.50
68215;DHT22;55036;52.138;5.236;2023-08-06T04:13:54;16.80;94.40
68215;DHT22;55036;52.138;5.236;2023-08-06T04:16:21;16.80;94.50
68215;DHT22;55036;52.138;5.236;2023-08-06T04:18:48;16.80;94.50
68215;DHT22;55036;52.138;5.236;2023-08-06T04:21:15;16.80;94.40
68215;DHT22;55036;52.138;5.236;2023-08-06T04:23:42;16.80;94.40
68215;DHT22;55036;52.138;5.236;2023-08-06T04:26:08;16.80;94.40
68215;DHT22;55036;52.138;5.236;2023-08-06T04:28:35;16.90;94.40
68215;DHT22;55036;52.138;5.236;2023-08-06T04:31:02;16.90;94.30
68215;DHT22;55036;52.138;5.236;2023-08-06T04:33:29;16.90;94.10
68215;DHT22;55036;52.138;5.236;2023-08-06T04:35:56;16.80;94.30
68215;DHT22;55036;52.138;5.236;2023-08-06T04:38:24;16.80;94.20
68215;DHT22;55036;52.138;5.236;2023-08-06T04:40:52;16.80;94.20
68215;DHT22;55036;52.138;5.236;2023-08-06T04:43:19;16.80;94.30
68215;DHT22;55036;52.138;5.236;2023-08-06T04:45:50;16.80;94.30
68215;DHT22;55036;52.138;5.236;2023-08-06T04:48:17;16.70;94.50
68215;DHT22;55036;52.138;5.236;2023-08-06T04:50:48;16.80;94.40
68215;DHT22;55036;52.138;5.236;2023-08-06T04:53:16;16.80;94.30
68215;DHT22;55036;52.138;5.236;2023-08-06T04:55:42;16.80;94.20
68215;DHT22;55036;52.138;5.236;2023-08-06T04:58:10;16.80;94.10
68215;DHT22;55036;52.138;5.236;2023-08-06T05:00:37;16.80;94.20
68215;DHT22;55036;52.138;5.236;2023-08-06T05:03:05;16.80;94.20
68215;DHT22;55036;52.138;5.236;2023-08-06T05:05:32;16.80;94.20
68215;DHT22;55036;52.138;5.236;2023-08-06T05:07:58;16.80;94.30
68215;DHT22;55036;52.138;5.236;2023-08-06T05:10:26;16.80;94.20
68215;DHT22;55036;52.138;5.236;2023-08-06T05:12:53;16.80;94.30
68215;DHT22;55036;52.138;5.236;2023-08-06T05:15:20;16.80;94.40
68215;DHT22;55036;52.138;5.236;2023-08-06T05:17:46;16.80;94.40
68215;DHT22;55036;52.138;5.236;2023-08-06T05:20:13;16.90;94.40
68215;DHT22;55036;52.138;5.236;2023-08-06T05:22:40;16.90;94.30
68215;DHT22;55036;52.138;5.236;2023-08-06T05:25:07;16.80;94.20
68215;DHT22;55036;52.138;5.236;2023-08-06T05:27:34;16.80;94.40
68215;DHT22;55036;52.138;5.236;2023-08-06T05:30:01;16.80;94.40
68215;DHT22;55036;52.138;5.236;2023-08-06T05:32:27;16.90;94.30
68215;DHT22;55036;52.138;5.236;2023-08-06T05:34:54;16.80;94.30
68215;DHT22;55036;52.138;5.236;2023-08-06T05:37:21;16.80;94.40
68215;DHT22;55036;52.138;5.236;2023-08-06T05:39:48;16.90;94.40
68215;DHT22;55036;52.138;5.236;2023-08-06T05:42:15;16.90;94.30
68215;DHT22;55036;52.138;5.236;2023-08-06T05:44:41;16.90;94.40
68215;DHT22;55036;52.138;5.236;2023-08-06T05:47:08;16.90;94.30
68215;DHT22;55036;52.138;5.236;2023-08-06T05:49:35;17.00;94.30
68215;DHT22;55036;52.138;5.236;2023-08-06T05:52:01;17.00;94.10
68215;DHT22;55036;52.138;5.236;2023-08-06T05:54:29;17.00;94.20
68215;DHT22;55036;52.138;5.236;2023-08-06T05:56:56;17.00;94.20
68215;DHT22;55036;52.138;5.236;2023-08-06T05:59:23;17.00;94.00
68215;DHT22;55036;52.138;5.236;2023-08-06T06:01:49;17.00;94.30
68215;DHT22;55036;52.138;5.236;2023-08-06T06:04:16;17.00;94.20
68215;DHT22;55036;52.138;5.236;2023-08-06T06:06:43;17.00;94.30
68215;DHT22;55036;52.138;5.236;2023-08-06T06:09:11;17.00;94.30
68215;DHT22;55036;52.138;5.236;2023-08-06T06:11:38;17.10;94.30
68215;DHT22;55036;52.138;5.236;2023-08-06T06:14:04;17.10;94.20
68215;DHT22;55036;52.138;5.236;2023-08-06T06:16:31;17.10;94.20
68215;DHT22;55036;52.138;5.236;2023-08-06T06:18:58;17.10;94.10
68215;DHT22;55036;52.138;5.236;2023-08-06T06:21:24;17.00;94.40
68215;DHT22;55036;52.138;5.236;2023-08-06T06:23:51;17.00;94.20
68215;DHT22;55036;52.138;5.236;2023-08-06T06:26:18;17.00;94.50
68215;DHT22;55036;52.138;5.236;2023-08-06T06:28:45;17.10;94.40
68215;DHT22;55036;52.138;5.236;2023-08-06T06:31:12;17.10;94.30
68215;DHT22;55036;52.138;5.236;2023-08-06T06:33:39;17.10;94.40
68215;DHT22;55036;52.138;5.236;2023-08-06T06:36:05;17.00;94.50
68215;DHT22;55036;52.138;5.236;2023-08-06T06:38:34;17.00;94.40
68215;DHT22;55036;52.138;5.236;2023-08-06T06:41:01;17.00;94.30
68215;DHT22;55036;52.138;5.236;2023-08-06T06:43:30;16.90;94.20
68215;DHT22;55036;52.138;5.236;2023-08-06T06:45:57;16.80;94.90
68215;DHT22;55036;52.138;5.236;2023-08-06T06:48:28;16.90;94.70
68215;DHT22;55036;52.138;5.236;2023-08-06T06:50:55;16.90;94.70
68215;DHT22;55036;52.138;5.236;2023-08-06T06:53:22;16.90;94.50
68215;DHT22;55036;52.138;5.236;2023-08-06T06:56:03;16.90;94.30
68215;DHT22;55036;52.138;5.236;2023-08-06T06:58:31;16.90;94.40
68215;DHT22;55036;52.138;5.236;2023-08-06T07:00:58;16.90;94.40
68215;DHT22;55036;52.138;5.236;2023-08-06T07:03:24;16.80;94.60
68215;DHT22;55036;52.138;5.236;2023-08-06T07:05:51;16.80;94.70
68215;DHT22;55036;52.138;5.236;2023-08-06T07:08:18;16.70;94.60
68215;DHT22;55036;52.138;5.236;2023-08-06T07:10:45;16.80;94.50
68215;DHT22;55036;52.138;5.236;2023-08-06T07:13:11;16.80;94.20
68215;DHT22;55036;52.138;5.236;2023-08-06T07:15:38;16.70;93.70
68215;DHT22;55036;52.138;5.236;2023-08-06T07:18:05;16.60;94.40
68215;DHT22;55036;52.138;5.236;2023-08-06T07:20:32;16.60;94.60
68215;DHT22;55036;52.138;5.236;2023-08-06T07:23:00;16.60;94.60
68215;DHT22;55036;52.138;5.236;2023-08-06T07:25:27;16.60;94.50
68215;DHT22;55036;52.138;5.236;2023-08-06T07:27:54;16.60;94.50
68215;DHT22;55036;52.138;5.236;2023-08-06T07:30:23;16.60;94.50
68215;DHT22;55036;52.138;5.236;2023-08-06T07:32:51;16.60;94.40
68215;DHT22;55036;52.138;5.236;2023-08-06T07:35:19;16.60;94.60
68215;DHT22;55036;52.138;5.236;2023-08-06T07:37:45;16.60;94.70
68215;DHT22;55036;52.138;5.236;2023-08-06T07:40:12;16.50;94.90
68215;DHT22;55036;52.138;5.236;2023-08-06T07:42:39;16.60;94.70
68215;DHT22;55036;52.138;5.236;2023-08-06T07:45:07;16.60;94.50
68215;DHT22;55036;52.138;5.236;2023-08-06T07:47:34;16.60;94.30
68215;DHT22;55036;52.138;5.236;2023-08-06T07:50:01;16.60;94.10
68215;DHT22;55036;52.138;5.236;2023-08-06T07:52:27;16.60;94.30
68215;DHT22;55036;52.138;5.236;2023-08-06T07:54:54;16.60;93.90
68215;DHT22;55036;52.138;5.236;2023-08-06T07:57:21;16.50;94.00
68215;DHT22;55036;52.138;5.236;2023-08-06T07:59:47;16.40;94.20
68215;DHT22;55036;52.138;5.236;2023-08-06T08:02:14;16.40;94.10
68215;DHT22;55036;52.138;5.236;2023-08-06T08:04:41;16.50;94.00
68215;DHT22;55036;52.138;5.236;2023-08-06T08:07:09;16.50;94.00
68215;DHT22;55036;52.138;5.236;2023-08-06T08:09:37;16.50;93.90
68215;DHT22;55036;52.138;5.236;2023-08-06T08:12:04;16.50;93.90
68215;DHT22;55036;52.138;5.236;2023-08-06T08:14:30;16.50;93.70
68215;DHT22;55036;52.138;5.236;2023-08-06T08:17:02;16.50;93.60
68215;DHT22;55036;52.138;5.236;2023-08-06T08:19:29;16.50;93.50
68215;DHT22;55036;52.138;5.236;2023-08-06T08:21:56;16.40;93.80
68215;DHT22;55036;52.138;5.236;2023-08-06T08:24:23;16.40;93.50
68215;DHT22;55036;52.138;5.236;2023-08-06T08:26:51;16.40;93.70
68215;DHT22;55036;52.138;5.236;2023-08-06T08:29:19;16.40;93.70
68215;DHT22;55036;52.138;5.236;2023-08-06T08:31:47;16.40;93.60
68215;DHT22;55036;52.138;5.236;2023-08-06T08:34:16;16.50;93.40
68215;DHT22;55036;52.138;5.236;2023-08-06T08:36:43;16.50;93.70
68215;DHT22;55036;52.138;5.236;2023-08-06T08:39:10;16.50;93.60
68215;DHT22;55036;52.138;5.236;2023-08-06T08:41:37;16.50;93.60
68215;DHT22;55036;52.138;5.236;2023-08-06T08:44:09;16.50;93.50
68215;DHT22;55036;52.138;5.236;2023-08-06T08:46:40;16.50;93.40
68215;DHT22;55036;52.138;5.236;2023-08-06T08:49:08;16.50;93.80
68215;DHT22;55036;52.138;5.236;2023-08-06T08:51:35;16.50;93.80
68215;DHT22;55036;52.138;5.236;2023-08-06T08:54:07;16.60;93.60
68215;DHT22;55036;52.138;5.236;2023-08-06T08:56:35;16.60;93.70
68215;DHT22;55036;52.138;5.236;2023-08-06T08:59:02;16.70;93.80
68215;DHT22;55036;52.138;5.236;2023-08-06T09:01:29;16.70;93.80
68215;DHT22;55036;52.138;5.236;2023-08-06T09:03:57;16.70;93.80
68215;DHT22;55036;52.138;5.236;2023-08-06T09:06:25;16.70;93.80
68215;DHT22;55036;52.138;5.236;2023-08-06T09:09:05;16.70;94.20
68215;DHT22;55036;52.138;5.236;2023-08-06T09:11:37;16.70;94.00
68215;DHT22;55036;52.138;5.236;2023-08-06T09:14:07;16.70;94.20
68215;DHT22;55036;52.138;5.236;2023-08-06T09:16:37;16.60;94.40
68215;DHT22;55036;52.138;5.236;2023-08-06T09:19:22;16.70;94.40
68215;DHT22;55036;52.138;5.236;2023-08-06T09:21:51;16.80;94.30
68215;DHT22;55036;52.138;5.236;2023-08-06T09:24:18;16.70;94.60
68215;DHT22;55036;52.138;5.236;2023-08-06T09:26:45;16.80;94.40
68215;DHT22;55036;52.138;5.236;2023-08-06T09:29:12;16.70;94.50
68215;DHT22;55036;52.138;5.236;2023-08-06T09:31:47;16.80;94.60
68215;DHT22;55036;52.138;5.236;2023-08-06T09:34:22;16.80;94.80
68215;DHT22;55036;52.138;5.236;2023-08-06T09:36:53;16.80;95.10
68215;DHT22;55036;52.138;5.236;2023-08-06T09:39:21;16.90;94.80
68215;DHT22;55036;52.138;5.236;2023-08-06T09:41:48;16.90;94.80
68215;DHT22;55036;52.138;5.236;2023-08-06T09:44:22;17.00;94.60
68215;DHT22;55036;52.138;5.236;2023-08-06T09:46:58;17.00;94.50
68215;DHT22;55036;52.138;5.236;2023-08-06T09:49:26;17.10;94.30
68215;DHT22;55036;52.138;5.236;2023-08-06T09:51:54;17.10;94.30
68215;DHT22;55036;52.138;5.236;2023-08-06T09:54:27;17.10;94.30
68215;DHT22;55036;52.138;5.236;2023-08-06T09:56:54;17.20;94.30
68215;DHT22;55036;52.138;5.236;2023-08-06T09:59:23;17.30;94.30
68215;DHT22;55036;52.138;5.236;2023-08-06T10:01:51;17.30;94.50
68215;DHT22;55036;52.138;5.236;2023-08-06T10:04:20;17.30;93.90
68215;DHT22;55036;52.138;5.236;2023-08-06T10:06:52;17.40;94.00
68215;DHT22;55036;52.138;5.236;2023-08-06T10:09:20;17.40;93.90
68215;DHT22;55036;52.138;5.236;2023-08-06T10:11:51;17.40;93.90
68215;DHT22;55036;52.138;5.236;2023-08-06T10:14:35;17.50;93.90
68215;DHT22;55036;52.138;5.236;2023-08-06T10:17:03;17.50;93.70
68215;DHT22;55036;52.138;5.236;2023-08-06T10:19:31;17.50;93.70
68215;DHT22;55036;52.138;5.236;2023-08-06T10:22:11;17.50;93.60
68215;DHT22;55036;52.138;5.236;2023-08-06T10:24:56;17.50;93.30
68215;DHT22;55036;52.138;5.236;2023-08-06T10:27:36;17.50;93.60
68215;DHT22;55036;52.138;5.236;2023-08-06T10:32:56;17.50;93.30
68215;DHT22;55036;52.138;5.236;2023-08-06T10:35:31;17.50;92.50
68215;DHT22;55036;52.138;5.236;2023-08-06T10:37:59;17.50;93.10
68215;DHT22;55036;52.138;5.236;2023-08-06T10:40:29;17.50;93.20
68215;DHT22;55036;52.138;5.236;2023-08-06T10:43:04;17.50;93.20
68215;DHT22;55036;52.138;5.236;2023-08-06T10:45:37;17.50;92.90
68215;DHT22;55036;52.138;5.236;2023-08-06T10:48:04;17.50;93.00
68215;DHT22;55036;52.138;5.236;2023-08-06T10:50:32;17.50;93.10
68215;DHT22;55036;52.138;5.236;2023-08-06T10:53:04;17.60;93.30
68215;DHT22;55036;52.138;5.236;2023-08-06T10:55:32;17.60;93.00
68215;DHT22;55036;52.138;5.236;2023-08-06T10:57:59;17.50;93.20
68215;DHT22;55036;52.138;5.236;2023-08-06T11:00:26;17.50;93.30
68215;DHT22;55036;52.138;5.236;2023-08-06T11:02:53;17.60;93.10
68215;DHT22;55036;52.138;5.236;2023-08-06T11:05:21;17.60;93.40
68215;DHT22;55036;52.138;5.236;2023-08-06T11:07:48;17.60;93.10
68215;DHT22;55036;52.138;5.236;2023-08-06T11:10:16;17.50;93.30
68215;DHT22;55036;52.138;5.236;2023-08-06T11:12:42;17.60;92.90
68215;DHT22;55036;52.138;5.236;2023-08-06T11:15:10;17.50;92.80
68215;DHT22;55036;52.138;5.236;2023-08-06T11:17:40;17.50;93.20
68215;DHT22;55036;52.138;5.236;2023-08-06T11:20:07;17.60;93.30
68215;DHT22;55036;52.138;5.236;2023-08-06T11:22:35;17.70;93.10
68215;DHT22;55036;52.138;5.236;2023-08-06T11:25:02;17.70;93.50
68215;DHT22;55036;52.138;5.236;2023-08-06T11:27:29;17.80;93.10
68215;DHT22;55036;52.138;5.236;2023-08-06T11:29:56;17.80;92.90
68215;DHT22;55036;52.138;5.236;2023-08-06T11:32:23;17.80;93.00
68215;DHT22;55036;52.138;5.236;2023-08-06T11:34:50;17.80;93.10
68215;DHT22;55036;52.138;5.236;2023-08-06T11:37:21;17.80;92.80
68215;DHT22;55036;52.138;5.236;2023-08-06T11:39:49;17.70;93.00
68215;DHT22;55036;52.138;5.236;2023-08-06T11:42:16;17.70;93.00
68215;DHT22;55036;52.138;5.236;2023-08-06T11:44:43;17.70;93.00
68215;DHT22;55036;52.138;5.236;2023-08-06T11:47:14;17.80;93.00
68215;DHT22;55036;52.138;5.236;2023-08-06T11:49:46;17.80;92.90
68215;DHT22;55036;52.138;5.236;2023-08-06T11:52:21;17.80;92.60
68215;DHT22;55036;52.138;5.236;2023-08-06T11:55:08;17.90;92.80
68215;DHT22;55036;52.138;5.236;2023-08-06T11:57:39;18.00;92.00
68215;DHT22;55036;52.138;5.236;2023-08-06T12:00:11;17.90;92.40
68215;DHT22;55036;52.138;5.236;2023-08-06T12:02:42;17.90;92.40
68215;DHT22;55036;52.138;5.236;2023-08-06T12:05:13;17.90;92.50
68215;DHT22;55036;52.138;5.236;2023-08-06T12:07:42;18.00;92.20
68215;DHT22;55036;52.138;5.236;2023-08-06T12:10:09;18.00;92.20
68215;DHT22;55036;52.138;5.236;2023-08-06T12:12:36;18.00;92.10
68215;DHT22;55036;52.138;5.236;2023-08-06T12:15:04;18.10;92.20
68215;DHT22;55036;52.138;5.236;2023-08-06T12:17:32;18.10;92.10
68215;DHT22;55036;52.138;5.236;2023-08-06T12:19:59;18.10;92.00
68215;DHT22;55036;52.138;5.236;2023-08-06T12:22:26;18.10;91.80
68215;DHT22;55036;52.138;5.236;2023-08-06T12:24:53;18.10;91.60
68215;DHT22;55036;52.138;5.236;2023-08-06T12:27:20;18.10;91.90
68215;DHT22;55036;52.138;5.236;2023-08-06T12:29:50;18.20;91.80
68215;DHT22;55036;52.138;5.236;2023-08-06T12:32:16;18.30;91.70
68215;DHT22;55036;52.138;5.236;2023-08-06T12:34:43;18.30;91.60
68215;DHT22;55036;52.138;5.236;2023-08-06T12:37:19;18.30;91.60
68215;DHT22;55036;52.138;5.236;2023-08-06T12:39:46;18.30;91.40
68215;DHT22;55036;52.138;5.236;2023-08-06T12:42:13;18.30;91.30
68215;DHT22;55036;52.138;5.236;2023-08-06T12:44:40;18.40;91.30
68215;DHT22;55036;52.138;5.236;2023-08-06T12:47:09;18.40;91.50
68215;DHT22;55036;52.138;5.236;2023-08-06T12:49:36;18.40;91.40
68215;DHT22;55036;52.138;5.236;2023-08-06T12:52:03;18.40;91.30
68215;DHT22;55036;52.138;5.236;2023-08-06T12:54:32;18.40;91.80
68215;DHT22;55036;52.138;5.236;2023-08-06T12:57:06;18.40;91.50
68215;DHT22;55036;52.138;5.236;2023-08-06T12:59:32;18.50;90.90
68215;DHT22;55036;52.138;5.236;2023-08-06T13:02:00;18.40;91.30
68215;DHT22;55036;52.138;5.236;2023-08-06T13:04:27;18.40;90.80
68215;DHT22;55036;52.138;5.236;2023-08-06T13:06:55;18.30;90.90
68215;DHT22;55036;52.138;5.236;2023-08-06T13:09:21;18.30;90.80
68215;DHT22;55036;52.138;5.236;2023-08-06T13:11:48;18.30;90.80
68215;DHT22;55036;52.138;5.236;2023-08-06T13:14:17;18.30;90.90
68215;DHT22;55036;52.138;5.236;2023-08-06T13:16:44;18.30;90.90
68215;DHT22;55036;52.138;5.236;2023-08-06T13:19:12;18.40;90.90
68215;DHT22;55036;52.138;5.236;2023-08-06T13:24:07;18.30;90.80
68215;DHT22;55036;52.138;5.236;2023-08-06T13:26:34;18.40;90.80
68215;DHT22;55036;52.138;5.236;2023-08-06T13:29:01;18.30;90.90
68215;DHT22;55036;52.138;5.236;2023-08-06T13:31:29;18.30;90.90
68215;DHT22;55036;52.138;5.236;2023-08-06T13:33:56;18.30;90.80
68215;DHT22;55036;52.138;5.236;2023-08-06T13:36:25;18.30;90.80
68215;DHT22;55036;52.138;5.236;2023-08-06T13:38:53;18.40;90.80
68215;DHT22;55036;52.138;5.236;2023-08-06T13:41:19;18.30;90.90
68215;DHT22;55036;52.138;5.236;2023-08-06T13:43:46;18.30;90.90
68215;DHT22;55036;52.138;5.236;2023-08-06T13:46:13;18.40;90.90
68215;DHT22;55036;52.138;5.236;2023-08-06T13:48:44;18.40;90.90
68215;DHT22;55036;52.138;5.236;2023-08-06T13:51:11;18.40;90.70
68215;DHT22;55036;52.138;5.236;2023-08-06T13:53:39;18.40;90.80
68215;DHT22;55036;52.138;5.236;2023-08-06T13:56:06;18.50;90.90
68215;DHT22;55036;52.138;5.236;2023-08-06T13:58:33;18.50;90.70
68215;DHT22;55036;52.138;5.236;2023-08-06T14:01:00;18.50;90.70
68215;DHT22;55036;52.138;5.236;2023-08-06T14:03:27;18.60;90.80
68215;DHT22;55036;52.138;5.236;2023-08-06T14:05:54;18.60;90.60
68215;DHT22;55036;52.138;5.236;2023-08-06T14:08:24;18.60;90.60
68215;DHT22;55036;52.138;5.236;2023-08-06T14:10:52;18.60;90.70
68215;DHT22;55036;52.138;5.236;2023-08-06T14:13:19;18.50;90.70
68215;DHT22;55036;52.138;5.236;2023-08-06T14:15:46;18.60;90.70
68215;DHT22;55036;52.138;5.236;2023-08-06T14:18:14;18.50;90.70
68215;DHT22;55036;52.138;5.236;2023-08-06T14:20:42;18.50;90.80
68215;DHT22;55036;52.138;5.236;2023-08-06T14:23:09;18.50;90.70
68215;DHT22;55036;52.138;5.236;2023-08-06T14:25:37;18.60;90.80
68215;DHT22;55036;52.138;5.236;2023-08-06T14:28:04;18.60;90.70
68215;DHT22;55036;52.138;5.236;2023-08-06T14:30:33;18.70;90.80
68215;DHT22;55036;52.138;5.236;2023-08-06T14:33:00;18.70;90.70
68215;DHT22;55036;52.138;5.236;2023-08-06T14:35:42;18.70;90.70
68215;DHT22;55036;52.138;5.236;2023-08-06T14:38:09;18.70;90.60
68215;DHT22;55036;52.138;5.236;2023-08-06T14:40:35;18.80;90.60
68215;DHT22;55036;52.138;5.236;2023-08-06T14:43:05;18.80;90.60
68215;DHT22;55036;52.138;5.236;2023-08-06T14:45:32;18.80;90.50
68215;DHT22;55036;52.138;5.236;2023-08-06T14:47:59;18.80;90.60
68215;DHT22;55036;52.138;5.236;2023-08-06T14:50:26;18.80;90.70
68215;DHT22;55036;52.138;5.236;2023-08-06T14:52:52;18.80;90.50
68215;DHT22;55036;52.138;5.236;2023-08-06T14:55:26;18.80;90.50
68215;DHT22;55036;52.138;5.236;2023-08-06T14:57:53;18.80;90.40
68215;DHT22;55036;52.138;5.236;2023-08-06T15:00:20;18.70;90.10
68215;DHT22;55036;52.138;5.236;2023-08-06T15:02:47;18.50;89.80
68215;DHT22;55036;52.138;5.236;2023-08-06T15:05:14;18.30;89.80
68215;DHT22;55036;52.138;5.236;2023-08-06T15:07:40;18.10;89.90
68215;DHT22;55036;52.138;5.236;2023-08-06T15:10:07;18.00;90.00
68215;DHT22;55036;52.138;5.236;2023-08-06T15:12:53;17.90;90.30
68215;DHT22;55036;52.138;5.236;2023-08-06T15:15:20;17.90;90.50
68215;DHT22;55036;52.138;5.236;2023-08-06T15:17:46;17.90;90.70
68215;DHT22;55036;52.138;5.236;2023-08-06T15:20:13;18.00;90.80
68215;DHT22;55036;52.138;5.236;2023-08-06T15:22:40;18.10;90.90
68215;DHT22;55036;52.138;5.236;2023-08-06T15:25:07;18.10;90.80
68215;DHT22;55036;52.138;5.236;2023-08-06T15:27:35;18.20;90.70
68215;DHT22;55036;52.138;5.236;2023-08-06T15:30:03;18.20;90.60
68215;DHT22;55036;52.138;5.236;2023-08-06T15:32:30;18.20;90.80
68215;DHT22;55036;52.138;5.236;2023-08-06T15:34:57;18.20;90.70
68215;DHT22;55036;52.138;5.236;2023-08-06T15:37:24;18.10;90.60
68215;DHT22;55036;52.138;5.236;2023-08-06T15:39:51;18.10;90.60
68215;DHT22;55036;52.138;5.236;2023-08-06T15:42:18;18.00;90.70
68215;DHT22;55036;52.138;5.236;2023-08-06T15:44:45;17.90;90.40
68215;DHT22;55036;52.138;5.236;2023-08-06T15:47:12;17.90;90.30
68215;DHT22;55036;52.138;5.236;2023-08-06T15:49:39;17.80;90.40
68215;DHT22;55036;52.138;5.236;2023-08-06T15:52:06;17.90;90.40
68215;DHT22;55036;52.138;5.236;2023-08-06T15:54:33;17.90;90.30
68215;DHT22;55036;52.138;5.236;2023-08-06T15:57:00;17.80;90.00
68215;DHT22;55036;52.138;5.236;2023-08-06T15:59:29;17.80;90.10
68215;DHT22;55036;52.138;5.236;2023-08-06T16:01:57;17.80;90.10
68215;DHT22;55036;52.138;5.236;2023-08-06T16:04:28;17.80;90.10
68215;DHT22;55036;52.138;5.236;2023-08-06T16:06:56;17.80;89.70
68215;DHT22;55036;52.138;5.236;2023-08-06T16:09:23;17.60;89.20
68215;DHT22;55036;52.138;5.236;2023-08-06T16:11:52;17.50;90.10
68215;DHT22;55036;52.138;5.236;2023-08-06T16:14:19;17.50;90.10
68215;DHT22;55036;52.138;5.236;2023-08-06T16:16:46;17.50;90.10
68215;DHT22;55036;52.138;5.236;2023-08-06T16:19:13;17.60;90.20